Time;durP1;ratioP1;P1;durP2;ratioP2;P2;SDS_P1;SDS_P2;PMS_P1;PMS_P2;Temp;Humidity;BMP_temperature;BMP_pressure;BME280_temperature;BME280_humidity;BME280_pressure;Samples;Min_cycle;Max_cycle;Signal;HPM_P1;HPM_P2
2024/04/14 00:01:50;;;;;;;13.07;2.90;;;14.80;99.90;;;;;;5490339;26;20335;-53
2024/04/14 00:04:16;;;;;;;6.65;1.83;;;14.80;99.90;;;;;;5490170;26;20002;-52
2024/04/14 00:06:41;;;;;;;7.35;2.70;;;14.80;99.90;;;;;;5490148;26;19994;-53
2024/04/14 00:09:07;;;;;;;7.32;2.30;;;14.80;99.90;;;;;;5489888;26;20451;-53
2024/04/14 00:11:33;;;;;;;16.83;2.83;;;14.70;99.90;;;;;;5490180;26;20006;-54
2024/04/14 00:13:58;;;;;;;7.07;2.28;;;14.70;99.90;;;;;;5490161;26;20079;-53
2024/04/14 00:16:43;;;;;;;6.03;2.10;;;14.60;99.90;;;;;;5488056;26;20455;-54
2024/04/14 00:19:09;;;;;;;13.32;2.35;;;14.50;99.90;;;;;;5490012;26;20096;-53
2024/04/14 00:21:35;;;;;;;11.55;2.13;;;14.50;99.90;;;;;;5489772;26;20474;-54
2024/04/14 00:24:01;;;;;;;11.50;2.88;;;14.40;99.90;;;;;;5465924;26;19995;-53
2024/04/14 00:26:27;;;;;;;8.45;2.30;;;14.30;99.90;;;;;;5485813;26;19995;-53
2024/04/14 00:28:52;;;;;;;10.32;2.20;;;14.30;99.90;;;;;;5489745;26;20002;-53
2024/04/14 00:31:18;;;;;;;14.85;3.38;;;14.20;99.90;;;;;;5489646;26;20020;-52
2024/04/14 00:33:44;;;;;;;11.88;2.63;;;14.10;99.90;;;;;;5489561;26;19998;-70
2024/04/14 00:36:09;;;;;;;8.20;2.67;;;14.00;99.90;;;;;;5489870;26;19994;-55
2024/04/14 00:38:35;;;;;;;9.48;3.92;;;14.00;99.90;;;;;;5489743;26;20005;-56
2024/04/14 00:41:01;;;;;;;16.45;2.00;;;14.10;99.90;;;;;;5489528;26;20006;-40
2024/04/14 00:43:27;;;;;;;7.05;2.28;;;14.00;99.90;;;;;;5489650;26;20009;-41
2024/04/14 00:45:53;;;;;;;4.70;2.15;;;14.00;99.90;;;;;;5489477;26;19995;-41
2024/04/14 00:48:19;;;;;;;9.93;2.53;;;14.10;99.90;;;;;;5489157;26;19998;-40
2024/04/14 00:50:46;;;;;;;8.15;2.05;;;14.10;99.90;;;;;;5489331;26;19998;-40
2024/04/14 00:53:12;;;;;;;6.93;1.77;;;14.00;99.90;;;;;;5489774;26;19998;-40
2024/04/14 00:55:40;;;;;;;4.05;1.35;;;13.80;99.90;;;;;;5489714;26;20558;-39
2024/04/14 00:58:06;;;;;;;7.50;1.63;;;13.80;99.90;;;;;;5487675;26;20483;-41
2024/04/14 01:00:33;;;;;;;11.27;1.42;;;13.80;99.90;;;;;;5488997;26;20352;-39
2024/04/14 01:02:59;;;;;;;3.40;1.08;;;13.70;99.90;;;;;;5488813;26;20026;-40
2024/04/14 01:05:25;;;;;;;6.68;1.50;;;13.70;99.90;;;;;;5487687;26;20034;-42
2024/04/14 01:07:53;;;;;;;5.13;0.90;;;13.60;99.90;;;;;;5487483;26;19994;-40
2024/04/14 01:10:20;;;;;;;7.25;1.88;;;13.60;99.90;;;;;;5487482;26;20026;-40
2024/04/14 01:12:45;;;;;;;4.00;0.95;;;13.60;99.90;;;;;;5487268;26;20074;-39
2024/04/14 01:15:11;;;;;;;7.68;1.38;;;13.60;99.90;;;;;;5489294;26;20006;-40
2024/04/14 01:17:37;;;;;;;5.93;0.98;;;13.60;99.90;;;;;;5488552;26;20115;-40
2024/04/14 01:20:04;;;;;;;9.05;1.15;;;13.50;99.90;;;;;;5489054;26;19994;-39
2024/04/14 01:22:29;;;;;;;6.82;1.20;;;13.50;99.90;;;;;;5487635;26;20003;-64
2024/04/14 01:25:06;;;;;;;11.32;1.63;;;13.40;99.90;;;;;;5452506;26;20447;-41
2024/04/14 01:27:33;;;;;;;13.85;1.30;;;13.40;99.90;;;;;;5452752;26;20554;-65
2024/04/14 01:29:59;;;;;;;6.10;0.90;;;13.30;99.90;;;;;;5452658;26;20458;-41
2024/04/14 01:32:24;;;;;;;7.95;1.10;;;13.20;99.90;;;;;;5454568;26;19999;-41
2024/04/14 01:34:50;;;;;;;5.82;1.63;;;13.10;99.90;;;;;;5488852;26;20315;-54
2024/04/14 01:37:16;;;;;;;10.75;1.98;;;13.10;99.90;;;;;;5488548;26;20338;-48
2024/04/14 01:39:41;;;;;;;5.18;1.60;;;13.10;99.90;;;;;;5488490;26;20005;-52
2024/04/14 01:42:07;;;;;;;11.05;1.20;;;13.10;99.90;;;;;;5488695;26;19994;-54
2024/04/14 01:44:33;;;;;;;10.88;1.98;;;13.10;99.90;;;;;;5488619;26;19998;-53
2024/04/14 01:46:59;;;;;;;9.85;0.85;;;13.00;99.90;;;;;;5485969;26;20008;-55
2024/04/14 01:49:25;;;;;;;10.00;1.35;;;12.90;99.90;;;;;;5487872;26;20447;-51
2024/04/14 01:51:50;;;;;;;5.80;0.80;;;12.80;99.90;;;;;;5488597;26;20011;-40
2024/04/14 01:54:16;;;;;;;11.60;1.60;;;12.80;99.90;;;;;;5488473;26;20006;-43
2024/04/14 01:56:42;;;;;;;7.13;1.10;;;12.80;99.90;;;;;;5488430;26;20356;-41
2024/04/14 01:59:07;;;;;;;11.45;1.95;;;12.70;99.90;;;;;;5487009;26;19995;-39
2024/04/14 02:01:33;;;;;;;10.05;1.20;;;12.60;99.90;;;;;;5489720;26;19994;-41
2024/04/14 02:03:59;;;;;;;8.25;1.98;;;12.60;99.90;;;;;;5491992;26;19994;-39
2024/04/14 02:06:24;;;;;;;6.60;0.65;;;12.50;99.90;;;;;;5491837;26;19998;-39
2024/04/14 02:08:54;;;;;;;7.10;1.02;;;12.50;99.90;;;;;;5492062;26;20017;-39
2024/04/14 02:11:19;;;;;;;9.20;1.10;;;12.50;99.90;;;;;;5491816;26;20005;-39
2024/04/14 02:13:45;;;;;;;9.13;1.17;;;12.50;99.90;;;;;;5491747;26;20338;-40
2024/04/14 02:16:10;;;;;;;8.23;1.08;;;12.50;99.90;;;;;;5491851;26;20009;-39
2024/04/14 02:18:36;;;;;;;3.17;1.08;;;12.40;99.90;;;;;;5504585;26;20407;-47
2024/04/14 02:21:02;;;;;;;10.27;1.73;;;12.40;99.90;;;;;;5491958;26;20002;-39
2024/04/14 02:23:29;;;;;;;11.30;0.95;;;12.40;99.90;;;;;;5491517;26;20450;-40
2024/04/14 02:25:56;;;;;;;9.63;1.02;;;12.50;99.90;;;;;;5490156;26;20009;-63
2024/04/14 02:28:22;;;;;;;2.75;0.70;;;12.50;99.90;;;;;;5490267;26;19998;-41
2024/04/14 02:30:47;;;;;;;5.85;1.60;;;12.50;99.90;;;;;;5491548;26;19994;-39
2024/04/14 02:33:14;;;;;;;4.32;1.52;;;12.50;99.90;;;;;;5491551;26;19994;-39
2024/04/14 02:35:40;;;;;;;5.18;1.30;;;12.50;99.90;;;;;;5490044;26;20455;-40
2024/04/14 02:38:06;;;;;;;8.15;1.38;;;12.40;99.90;;;;;;5491408;26;20009;-40
2024/04/14 02:40:31;;;;;;;12.80;1.63;;;12.50;99.90;;;;;;5489348;26;20007;-44
2024/04/14 02:42:57;;;;;;;4.18;0.70;;;12.40;99.90;;;;;;5491400;26;20070;-40
2024/04/14 02:45:23;;;;;;;12.02;1.02;;;12.40;99.90;;;;;;5489658;26;20021;-39
2024/04/14 02:47:48;;;;;;;5.82;1.25;;;12.30;99.90;;;;;;5491613;26;20010;-39
2024/04/14 02:50:14;;;;;;;13.52;1.55;;;12.30;99.90;;;;;;5491025;26;20013;-56
2024/04/14 02:52:40;;;;;;;9.77;1.20;;;12.30;99.90;;;;;;5491077;26;20006;-53
2024/04/14 02:55:06;;;;;;;7.38;0.98;;;12.20;99.90;;;;;;5491015;26;19998;-53
2024/04/14 02:57:31;;;;;;;7.65;0.82;;;12.20;99.90;;;;;;5490921;26;20451;-53
2024/04/14 02:59:58;;;;;;;5.85;0.82;;;12.30;99.90;;;;;;5489252;26;19998;-53
2024/04/14 03:02:23;;;;;;;5.80;2.40;;;12.30;99.90;;;;;;5491168;26;20006;-51
2024/04/14 03:04:49;;;;;;;6.97;1.48;;;12.30;99.90;;;;;;5490934;26;19998;-52
2024/04/14 03:07:15;;;;;;;6.22;1.08;;;12.30;99.90;;;;;;5491012;26;20350;-54
2024/04/14 03:09:41;;;;;;;1.65;0.68;;;12.30;99.90;;;;;;5489363;26;20038;-51
2024/04/14 03:12:06;;;;;;;3.58;0.90;;;12.30;99.90;;;;;;5490539;26;20010;-53
2024/04/14 03:14:32;;;;;;;3.65;0.80;;;12.40;99.90;;;;;;5490638;26;20523;-53
2024/04/14 03:16:57;;;;;;;6.13;1.08;;;12.40;99.90;;;;;;5490697;26;20066;-59
2024/04/14 03:19:23;;;;;;;2.03;0.60;;;12.40;99.90;;;;;;5490756;26;19994;-53
2024/04/14 03:21:49;;;;;;;9.38;1.85;;;12.30;99.90;;;;;;5490683;26;20477;-52
2024/04/14 03:24:14;;;;;;;12.48;1.60;;;12.30;99.90;;;;;;5490771;26;20486;-55
2024/04/14 03:26:40;;;;;;;12.90;1.23;;;12.30;99.90;;;;;;5490562;26;19998;-52
2024/04/14 03:29:06;;;;;;;9.57;1.58;;;12.30;99.90;;;;;;5490594;26;20346;-51
2024/04/14 03:31:31;;;;;;;11.27;1.25;;;12.30;99.90;;;;;;5490043;26;19998;-71
2024/04/14 03:33:57;;;;;;;5.80;1.02;;;12.30;99.90;;;;;;5490518;26;20403;-54
2024/04/14 03:36:23;;;;;;;8.52;1.73;;;12.20;99.90;;;;;;5490552;26;20006;-52
2024/04/14 03:38:49;;;;;;;4.75;0.75;;;12.20;99.90;;;;;;5490404;26;20002;-49
2024/04/14 03:41:14;;;;;;;5.28;1.13;;;12.10;99.90;;;;;;5490876;26;20009;-54
2024/04/14 03:43:40;;;;;;;8.98;2.05;;;12.10;99.90;;;;;;5490358;26;19995;-51
2024/04/14 03:46:09;;;;;;;8.18;1.10;;;12.10;99.90;;;;;;5490441;26;20002;-49
2024/04/14 03:48:34;;;;;;;9.00;1.33;;;12.00;99.90;;;;;;5490093;26;19994;-53
2024/04/14 03:51:00;;;;;;;8.57;0.85;;;12.00;99.90;;;;;;5490604;26;19994;-52
2024/04/14 03:53:25;;;;;;;2.05;0.80;;;12.00;99.90;;;;;;5488919;26;20009;-39
2024/04/14 03:55:51;;;;;;;4.75;0.90;;;12.00;99.90;;;;;;5490283;26;20044;-40
2024/04/14 03:58:17;;;;;;;6.57;1.10;;;12.00;99.90;;;;;;5473526;26;20008;-38
2024/04/14 04:00:43;;;;;;;6.85;1.63;;;12.00;99.90;;;;;;5490377;26;20328;-42
2024/04/14 04:03:08;;;;;;;6.13;1.50;;;12.00;99.90;;;;;;5490431;26;19994;-40
2024/04/14 04:05:35;;;;;;;12.18;1.48;;;12.00;99.90;;;;;;5490065;26;20006;-41
2024/04/14 04:08:02;;;;;;;3.70;0.98;;;12.00;99.90;;;;;;5490182;26;20005;-53
2024/04/14 04:10:28;;;;;;;8.27;1.02;;;12.10;99.90;;;;;;5490294;26;20005;-39
2024/04/14 04:12:53;;;;;;;6.93;1.40;;;12.10;99.90;;;;;;5490294;26;20022;-73
2024/04/14 04:15:19;;;;;;;11.57;1.40;;;12.10;99.90;;;;;;5490027;26;19999;-53
2024/04/14 04:17:45;;;;;;;6.15;0.88;;;12.00;99.90;;;;;;5488096;26;19994;-53
2024/04/14 04:20:11;;;;;;;8.55;0.88;;;12.00;99.90;;;;;;5489945;26;20357;-38
2024/04/14 04:22:36;;;;;;;3.58;0.98;;;12.00;99.90;;;;;;5489645;26;20532;-39
2024/04/14 04:25:02;;;;;;;2.55;0.85;;;12.00;99.90;;;;;;5488943;26;19998;-40
2024/04/14 04:27:27;;;;;;;10.35;1.13;;;12.00;99.90;;;;;;5489914;26;20372;-39
2024/04/14 04:29:53;;;;;;;4.97;1.10;;;11.90;99.90;;;;;;5489827;26;19998;-39
2024/04/14 04:32:19;;;;;;;8.13;1.23;;;11.90;99.90;;;;;;5489300;26;20454;-40
2024/04/14 04:34:45;;;;;;;14.40;1.70;;;11.90;99.90;;;;;;5489644;26;19998;-38
2024/04/14 04:37:11;;;;;;;12.25;1.50;;;11.90;99.90;;;;;;5489662;26;19998;-39
2024/04/14 04:39:36;;;;;;;8.43;1.10;;;11.80;99.90;;;;;;5489112;26;20795;-39
2024/04/14 04:42:02;;;;;;;10.68;1.10;;;11.70;99.90;;;;;;5489406;26;19998;-40
2024/04/14 04:44:28;;;;;;;8.50;0.98;;;11.70;99.90;;;;;;5489519;26;19994;-40
2024/04/14 04:46:53;;;;;;;11.15;1.80;;;11.70;99.90;;;;;;5489612;26;20465;-39
2024/04/14 04:49:19;;;;;;;7.93;1.38;;;11.70;99.90;;;;;;5487620;26;20077;-40
2024/04/14 04:51:44;;;;;;;10.13;1.63;;;11.80;99.90;;;;;;5489633;26;19994;-39
2024/04/14 04:54:10;;;;;;;7.53;1.23;;;11.70;99.90;;;;;;5489537;26;20009;-73
2024/04/14 04:56:36;;;;;;;9.18;1.58;;;11.70;99.90;;;;;;5484642;26;20455;-38
2024/04/14 04:59:02;;;;;;;8.60;1.95;;;11.70;99.90;;;;;;5489478;26;19994;-44
2024/04/14 05:01:28;;;;;;;10.85;1.83;;;11.70;99.90;;;;;;5489493;26;19998;-40
2024/04/14 05:03:53;;;;;;;2.35;0.82;;;11.80;99.90;;;;;;5486598;26;20441;-39
2024/04/14 05:06:19;;;;;;;10.68;1.67;;;11.80;99.90;;;;;;5489311;26;20026;-40
2024/04/14 05:08:44;;;;;;;6.57;1.13;;;11.90;99.90;;;;;;5487485;26;20480;-39
2024/04/14 05:11:10;;;;;;;3.83;1.52;;;11.90;99.90;;;;;;5489272;26;20029;-40
2024/04/14 05:13:35;;;;;;;9.88;1.20;;;11.90;99.90;;;;;;5489036;26;20107;-38
2024/04/14 05:16:03;;;;;;;10.07;1.35;;;11.80;99.90;;;;;;5488837;26;20370;-40
2024/04/14 05:18:29;;;;;;;10.63;0.85;;;11.90;99.90;;;;;;5489352;26;20463;-41
2024/04/14 05:20:54;;;;;;;2.15;0.75;;;11.90;99.90;;;;;;5489160;26;19998;-40
2024/04/14 05:23:20;;;;;;;5.80;1.13;;;11.90;99.90;;;;;;5489181;26;20038;-39
2024/04/14 05:25:49;;;;;;;11.13;1.30;;;11.90;99.90;;;;;;5488964;26;20473;-39
2024/04/14 05:28:15;;;;;;;11.55;1.40;;;11.90;99.90;;;;;;5488992;26;20009;-40
2024/04/14 05:30:40;;;;;;;6.03;1.55;;;11.90;99.90;;;;;;5488759;26;19998;-39
2024/04/14 05:33:06;;;;;;;8.38;1.20;;;11.90;99.90;;;;;;5488897;26;19998;-39
2024/04/14 05:35:33;;;;;;;10.77;0.95;;;11.90;99.90;;;;;;5488748;26;20067;-40
2024/04/14 05:37:59;;;;;;;13.55;0.90;;;11.90;99.90;;;;;;5489057;26;20441;-40
2024/04/14 05:40:25;;;;;;;5.93;1.30;;;12.00;99.90;;;;;;5488687;26;19994;-38
2024/04/14 05:42:51;;;;;;;4.80;1.00;;;12.00;99.90;;;;;;5459255;26;20096;-39
2024/04/14 05:45:24;;;;;;;5.97;1.50;;;12.00;99.90;;;;;;5452294;26;20451;-41
2024/04/14 05:47:49;;;;;;;4.65;0.77;;;12.10;99.90;;;;;;5458300;26;20529;-42
2024/04/14 05:50:15;;;;;;;4.95;1.55;;;12.10;99.90;;;;;;5488458;26;20005;-53
2024/04/14 05:52:40;;;;;;;6.85;1.50;;;12.10;99.90;;;;;;5486581;26;19998;-54
2024/04/14 05:55:06;;;;;;;8.75;1.10;;;12.10;99.90;;;;;;5458562;26;20367;-64
2024/04/14 05:57:33;;;;;;;6.13;0.95;;;12.10;99.90;;;;;;5473604;26;19994;-52
2024/04/14 05:59:59;;;;;;;9.43;1.00;;;12.10;99.90;;;;;;5488432;26;19998;-53
2024/04/14 06:02:25;;;;;;;7.10;1.20;;;12.20;99.90;;;;;;5488288;26;20454;-53
2024/04/14 06:04:50;;;;;;;9.00;1.42;;;12.20;99.90;;;;;;5488338;26;20006;-47
2024/04/14 06:07:16;;;;;;;6.43;1.00;;;12.30;99.90;;;;;;5488224;26;20442;-53
2024/04/14 06:09:41;;;;;;;5.20;1.00;;;12.40;99.90;;;;;;5488052;26;19998;-50
2024/04/14 06:12:07;;;;;;;7.13;0.93;;;12.30;99.90;;;;;;5488186;26;20347;-51
2024/04/14 06:14:33;;;;;;;7.88;0.70;;;12.40;99.90;;;;;;5488094;26;19994;-51
2024/04/14 06:16:58;;;;;;;8.60;1.48;;;12.40;99.90;;;;;;5487914;26;20067;-57
2024/04/14 06:19:24;;;;;;;7.75;0.90;;;12.40;99.90;;;;;;5487863;26;20338;-50
2024/04/14 06:21:49;;;;;;;3.03;0.40;;;12.40;99.90;;;;;;5487623;26;19998;-41
2024/04/14 06:24:15;;;;;;;4.18;1.00;;;12.50;99.90;;;;;;5487878;26;20030;-40
2024/04/14 06:26:41;;;;;;;3.85;0.80;;;12.50;99.90;;;;;;5487910;26;20342;-42
2024/04/14 06:29:06;;;;;;;14.10;1.77;;;12.50;99.90;;;;;;5487928;26;20006;-40
2024/04/14 06:31:32;;;;;;;8.23;0.77;;;12.50;99.90;;;;;;5488101;26;20315;-53
2024/04/14 06:33:57;;;;;;;7.50;0.93;;;12.50;99.90;;;;;;5487669;26;20009;-51
2024/04/14 06:36:23;;;;;;;7.20;1.33;;;12.60;99.90;;;;;;5487682;26;20171;-51
2024/04/14 06:38:49;;;;;;;7.05;1.20;;;12.60;99.90;;;;;;5487807;26;20065;-49
2024/04/14 06:41:14;;;;;;;11.82;0.73;;;12.60;99.90;;;;;;5487521;26;20067;-51
2024/04/14 06:43:40;;;;;;;14.60;1.10;;;12.50;99.90;;;;;;5487917;26;20005;-64
2024/04/14 06:46:06;;;;;;;4.10;0.80;;;12.40;99.90;;;;;;5487577;26;19998;-52
2024/04/14 06:48:32;;;;;;;6.05;1.08;;;12.40;99.90;;;;;;5490788;26;20338;-53
2024/04/14 06:50:58;;;;;;;4.63;0.95;;;12.40;99.90;;;;;;5491375;26;20071;-50
2024/04/14 06:53:23;;;;;;;8.63;1.00;;;12.40;99.90;;;;;;5486850;26;20407;-53
2024/04/14 06:55:52;;;;;;;4.50;0.98;;;12.40;99.90;;;;;;5463318;26;20010;-53
2024/04/14 06:58:18;;;;;;;5.65;1.23;;;12.40;99.90;;;;;;5491234;26;20440;-53
2024/04/14 07:00:44;;;;;;;7.75;0.90;;;12.50;99.90;;;;;;5491017;26;20465;-67
2024/04/14 07:03:11;;;;;;;8.25;1.33;;;12.60;99.90;;;;;;5490980;26;19995;-54
2024/04/14 07:05:37;;;;;;;3.80;1.45;;;12.70;99.90;;;;;;5491286;26;20468;-49
2024/04/14 07:08:03;;;;;;;7.47;1.67;;;12.70;99.90;;;;;;5491437;26;19998;-50
2024/04/14 07:10:28;;;;;;;6.03;0.95;;;12.70;99.90;;;;;;5490958;26;20004;-53
2024/04/14 07:12:54;;;;;;;5.03;1.33;;;12.70;99.90;;;;;;5490522;26;20005;-50
2024/04/14 07:15:20;;;;;;;8.00;0.75;;;12.70;99.90;;;;;;5489245;26;20466;-52
2024/04/14 07:17:46;;;;;;;7.03;1.00;;;12.80;99.90;;;;;;5489060;26;20480;-52
2024/04/14 07:20:11;;;;;;;5.10;0.60;;;13.00;99.90;;;;;;5490791;26;19998;-53
2024/04/14 07:22:37;;;;;;;9.10;1.77;;;13.20;99.90;;;;;;5490695;26;20008;-53
2024/04/14 07:25:03;;;;;;;4.85;1.10;;;13.40;99.90;;;;;;5490811;26;20339;-56
2024/04/14 07:27:29;;;;;;;8.27;1.17;;;13.30;99.90;;;;;;5490676;26;19995;-54
2024/04/14 07:29:54;;;;;;;8.48;0.80;;;13.40;99.90;;;;;;5490577;26;20010;-52
2024/04/14 07:32:20;;;;;;;11.98;1.58;;;13.50;99.90;;;;;;5490699;26;20458;-53
2024/04/14 07:34:46;;;;;;;7.88;1.98;;;13.70;99.90;;;;;;5490550;26;20400;-53
2024/04/14 07:37:11;;;;;;;5.53;1.40;;;13.70;99.90;;;;;;5490446;26;19998;-65
2024/04/14 07:39:37;;;;;;;7.10;1.45;;;13.70;99.90;;;;;;5488348;26;20125;-52
2024/04/14 07:42:04;;;;;;;15.05;1.60;;;13.70;99.90;;;;;;5490467;26;19998;-67
2024/04/14 07:44:30;;;;;;;3.83;1.02;;;13.60;99.90;;;;;;5490539;26;20522;-52
2024/04/14 07:46:56;;;;;;;7.85;1.40;;;13.50;99.90;;;;;;5489990;26;20006;-49
2024/04/14 07:49:22;;;;;;;8.50;1.60;;;13.40;99.90;;;;;;5490381;26;20324;-54
2024/04/14 07:51:48;;;;;;;12.52;1.52;;;13.10;99.90;;;;;;5490228;26;20008;-49
2024/04/14 07:54:14;;;;;;;8.55;1.08;;;13.20;99.90;;;;;;5473268;26;20331;-53
2024/04/14 07:56:40;;;;;;;7.75;0.98;;;13.30;99.90;;;;;;5453753;26;20516;-51
2024/04/14 07:59:06;;;;;;;3.67;1.13;;;13.20;99.90;;;;;;5452348;26;19994;-48
2024/04/14 08:01:31;;;;;;;12.35;1.48;;;13.10;99.90;;;;;;5453635;26;19999;-53
2024/04/14 08:03:57;;;;;;;7.38;1.67;;;13.10;99.90;;;;;;5464276;26;19998;-53
2024/04/14 08:06:23;;;;;;;3.97;0.73;;;13.20;99.90;;;;;;5490231;26;20397;-54
2024/04/14 08:08:48;;;;;;;7.38;1.35;;;13.20;99.90;;;;;;5489974;26;20010;-52
2024/04/14 08:11:14;;;;;;;7.95;1.13;;;13.10;99.90;;;;;;5490030;26;20013;-54
2024/04/14 08:13:40;;;;;;;3.75;1.33;;;13.00;99.90;;;;;;5489866;26;20050;-53
2024/04/14 08:16:06;;;;;;;5.05;0.80;;;13.00;99.90;;;;;;5489908;26;19994;-54
2024/04/14 08:18:32;;;;;;;7.25;0.77;;;13.00;99.90;;;;;;5490272;26;20009;-55
2024/04/14 08:20:59;;;;;;;5.88;1.88;;;13.00;99.90;;;;;;5489541;26;20059;-52
2024/04/14 08:23:25;;;;;;;6.97;1.02;;;12.90;99.90;;;;;;5490308;26;20008;-54
2024/04/14 08:25:51;;;;;;;7.13;1.23;;;12.90;99.90;;;;;;5490232;26;19995;-58
2024/04/14 08:28:16;;;;;;;4.88;0.75;;;12.90;99.90;;;;;;5488374;26;20532;-54
2024/04/14 08:30:43;;;;;;;4.72;0.98;;;12.90;99.90;;;;;;5490186;26;19993;-71
2024/04/14 08:33:08;;;;;;;7.25;0.70;;;12.90;99.90;;;;;;5488411;26;20319;-53
2024/04/14 08:35:34;;;;;;;6.63;0.60;;;13.00;99.90;;;;;;5490174;26;20013;-53
2024/04/14 08:38:00;;;;;;;4.40;0.77;;;13.20;99.90;;;;;;5489632;26;19998;-52
2024/04/14 08:40:25;;;;;;;4.10;1.15;;;13.30;99.90;;;;;;5489377;26;20013;-52
2024/04/14 08:42:52;;;;;;;8.52;0.80;;;13.40;99.90;;;;;;5486903;26;20009;-49
2024/04/14 08:45:22;;;;;;;2.10;0.57;;;13.50;99.90;;;;;;5489940;26;19998;-52
2024/04/14 08:47:52;;;;;;;5.28;0.70;;;13.80;99.90;;;;;;5489679;26;19998;-50
2024/04/14 08:50:19;;;;;;;3.42;0.82;;;13.60;99.90;;;;;;5489376;26;20062;-50
2024/04/14 08:52:45;;;;;;;;;;;13.50;99.90;;;;;;5489962;26;20463;-51
2024/04/14 08:55:11;;;;;;;5.55;0.85;;;13.60;99.90;;;;;;5471831;26;19966;-53
2024/04/14 08:57:40;;;;;;;1.65;0.75;;;13.70;99.90;;;;;;5489451;26;20002;-53
2024/04/14 09:00:12;;;;;;;3.42;0.70;;;13.80;99.90;;;;;;5489322;26;19994;-52
2024/04/14 09:02:42;;;;;;;4.93;1.08;;;13.80;99.90;;;;;;5489277;26;20002;-52
2024/04/14 09:05:11;;;;;;;2.30;0.40;;;13.80;99.90;;;;;;5489142;26;20442;-52
2024/04/14 09:07:37;;;;;;;3.10;0.85;;;14.00;99.90;;;;;;5489168;26;19995;-52
2024/04/14 09:10:04;;;;;;;4.00;0.75;;;14.30;99.90;;;;;;5488450;26;20012;-53
2024/04/14 09:12:30;;;;;;;2.55;0.50;;;14.50;99.90;;;;;;5489004;26;20006;-54
2024/04/14 09:14:56;;;;;;;1.75;0.45;;;14.60;99.90;;;;;;5489238;26;20069;-55
2024/04/14 09:17:22;;;;;;;1.13;0.63;;;14.20;99.90;;;;;;5489272;26;20474;-52
2024/04/14 09:19:47;;;;;;;4.55;0.63;;;14.00;99.90;;;;;;5489000;26;20004;-52
2024/04/14 09:22:14;;;;;;;13.52;0.73;;;14.20;99.90;;;;;;5488893;26;20010;-52
2024/04/14 09:24:40;;;;;;;5.03;0.52;;;14.20;99.90;;;;;;5489175;26;20487;-51
2024/04/14 09:27:05;;;;;;;1.63;0.52;;;14.30;99.90;;;;;;5488931;26;19998;-50
2024/04/14 09:29:31;;;;;;;4.18;0.50;;;14.20;99.90;;;;;;5488863;26;20009;-52
2024/04/14 09:31:59;;;;;;;1.70;0.68;;;14.10;99.90;;;;;;5488743;26;19998;-52
2024/04/14 09:34:26;;;;;;;3.17;0.70;;;14.50;99.90;;;;;;5486655;26;20578;-68
2024/04/14 09:36:52;;;;;;;5.07;0.70;;;15.10;99.90;;;;;;5488720;26;20459;-53
2024/04/14 09:39:19;;;;;;;5.82;1.27;;;15.60;99.90;;;;;;5488774;26;19998;-52
2024/04/14 09:41:45;;;;;;;6.28;0.50;;;16.00;99.90;;;;;;5488659;26;20026;-54
2024/04/14 09:44:11;;;;;;;3.75;0.52;;;16.40;99.90;;;;;;5489021;26;20482;-55
2024/04/14 09:46:38;;;;;;;7.20;0.77;;;16.60;99.70;;;;;;5486448;26;20458;-54
2024/04/14 09:49:14;;;;;;;7.22;1.13;;;16.40;99.90;;;;;;5486928;26;19994;-53
2024/04/14 09:51:43;;;;;;;3.80;0.90;;;16.70;99.90;;;;;;5452263;26;20013;-54
2024/04/14 09:54:14;;;;;;;2.88;0.60;;;16.80;99.90;;;;;;5486550;26;20070;-53
2024/04/14 09:56:40;;;;;;;4.45;0.85;;;17.10;99.90;;;;;;5488806;26;19995;-52
2024/04/14 09:59:06;;;;;;;5.43;0.93;;;17.40;99.90;;;;;;5488384;26;20498;-38
2024/04/14 10:01:36;;;;;;;8.35;0.82;;;17.40;99.50;;;;;;5488301;26;20346;-42
2024/04/14 10:04:04;;;;;;;6.30;0.88;;;17.50;99.90;;;;;;5488099;26;20062;-58
2024/04/14 10:06:32;;;;;;;4.93;0.82;;;17.90;99.50;;;;;;5488224;26;20066;-39
2024/04/14 10:08:57;;;;;;;;;;;17.60;99.10;;;;;;5488897;26;20016;-37
2024/04/14 10:11:24;;;;;;;2.53;0.60;;;17.30;99.30;;;;;;5488139;26;19924;-38
2024/04/14 10:13:51;;;;;;;4.63;0.70;;;16.60;99.00;;;;;;5488199;26;19998;-45
2024/04/14 10:16:18;;;;;;;3.38;0.85;;;16.00;99.80;;;;;;5488293;26;20029;-37
2024/04/14 10:18:46;;;;;;;4.07;0.98;;;15.70;99.50;;;;;;5487948;26;19990;-38
2024/04/14 10:21:18;;;;;;;1.92;0.60;;;15.70;99.90;;;;;;5487392;26;20002;-39
2024/04/14 10:23:47;;;;;;;3.03;0.45;;;15.90;99.90;;;;;;5489497;26;19994;-39
2024/04/14 10:26:16;;;;;;;6.00;0.73;;;15.80;99.90;;;;;;5490478;26;20316;-42
2024/04/14 10:28:49;;;;;;;3.20;1.00;;;15.80;99.90;;;;;;5491128;26;20326;-39
2024/04/14 10:31:28;;;;;;;1.08;0.55;;;16.00;99.90;;;;;;5490725;26;19998;-38
2024/04/14 10:34:21;;;;;;;3.75;0.75;;;16.20;99.90;;;;;;5490809;26;20078;-42
2024/04/14 10:36:57;;;;;;;3.58;0.50;;;16.40;99.90;;;;;;5490131;26;20445;-36
2024/04/14 10:39:23;;;;;;;3.55;0.75;;;16.40;99.70;;;;;;5472528;26;20467;-43
2024/04/14 10:41:48;;;;;;;4.82;0.60;;;16.20;98.70;;;;;;5491241;26;20009;-37
2024/04/14 10:44:18;;;;;;;6.22;0.85;;;15.90;99.70;;;;;;5487775;26;20026;-38
2024/04/14 10:46:45;;;;;;;6.72;1.00;;;15.60;99.90;;;;;;5466398;26;20006;-38
2024/04/14 10:49:11;;;;;;;1.83;0.70;;;15.80;99.90;;;;;;5471475;26;19994;-38
2024/04/14 10:51:38;;;;;;;10.73;0.80;;;15.70;99.90;;;;;;5470143;26;20009;-41
2024/04/14 10:54:04;;;;;;;5.60;0.65;;;15.80;99.90;;;;;;5468264;26;20498;-38
2024/04/14 10:56:29;;;;;;;4.35;0.80;;;16.00;99.90;;;;;;5471827;26;20560;-52
2024/04/14 10:58:56;;;;;;;4.63;0.80;;;16.00;99.90;;;;;;5486543;26;20006;-51
2024/04/14 11:01:23;;;;;;;6.38;0.60;;;15.90;99.90;;;;;;5488513;26;20006;-56
2024/04/14 11:03:49;;;;;;;4.82;0.77;;;15.90;99.90;;;;;;5490648;26;20009;-50
2024/04/14 11:06:15;;;;;;;3.95;1.38;;;15.80;99.90;;;;;;5490884;26;20031;-55
2024/04/14 11:08:42;;;;;;;5.13;0.60;;;15.60;99.90;;;;;;5490349;26;20346;-53
2024/04/14 11:11:11;;;;;;;5.43;1.13;;;15.70;99.90;;;;;;5458524;26;20005;-54
2024/04/14 11:13:37;;;;;;;8.30;0.73;;;15.50;99.90;;;;;;5490487;26;19994;-54
2024/04/14 11:16:05;;;;;;;2.58;0.80;;;15.60;99.90;;;;;;5490809;26;19994;-55
2024/04/14 11:18:32;;;;;;;5.45;0.90;;;16.10;99.90;;;;;;5488746;26;19998;-53
2024/04/14 11:20:58;;;;;;;9.25;2.17;;;16.50;99.90;;;;;;5490453;26;19998;-58
2024/04/14 11:23:24;;;;;;;3.63;1.15;;;16.70;99.90;;;;;;5490700;26;20327;-53
2024/04/14 11:25:50;;;;;;;3.17;0.80;;;17.10;99.90;;;;;;5491071;26;20524;-54
2024/04/14 11:28:16;;;;;;;4.78;0.90;;;17.20;99.90;;;;;;5491027;26;20006;-52
2024/04/14 11:30:42;;;;;;;7.35;1.27;;;17.10;99.70;;;;;;5489335;26;19998;-54
2024/04/14 11:33:08;;;;;;;2.58;0.82;;;17.20;99.90;;;;;;5490371;26;20008;-55
2024/04/14 11:35:34;;;;;;;3.17;0.65;;;17.40;99.40;;;;;;5490287;26;20341;-51
2024/04/14 11:38:02;;;;;;;6.82;0.90;;;17.30;98.90;;;;;;5490085;26;20408;-53
2024/04/14 11:40:28;;;;;;;4.20;0.80;;;16.70;99.40;;;;;;5490437;26;20330;-51
2024/04/14 11:42:53;;;;;;;7.30;1.10;;;16.30;99.70;;;;;;5490573;26;20009;-53
2024/04/14 11:45:19;;;;;;;0.98;0.80;;;16.10;99.90;;;;;;5488549;26;19998;-53
2024/04/14 11:47:46;;;;;;;3.20;0.65;;;16.20;99.90;;;;;;5480324;26;20027;-54
2024/04/14 11:50:12;;;;;;;4.88;0.80;;;16.60;99.90;;;;;;5464106;26;20535;-49
2024/04/14 11:52:38;;;;;;;10.63;0.82;;;16.50;99.90;;;;;;5488095;26;19990;-52
2024/04/14 11:55:08;;;;;;;4.90;0.98;;;16.20;99.90;;;;;;5480652;26;20077;-58
2024/04/14 11:57:35;;;;;;;16.30;3.35;;;15.80;99.90;;;;;;5453814;26;20447;-53
2024/04/14 12:00:01;;;;;;;5.50;1.67;;;15.90;99.90;;;;;;5453723;26;20451;-54
2024/04/14 12:02:27;;;;;;;5.25;1.25;;;16.00;99.90;;;;;;5454037;26;20009;-53
2024/04/14 12:04:54;;;;;;;6.50;0.77;;;16.20;99.90;;;;;;5474836;26;19998;-52
2024/04/14 12:07:20;;;;;;;3.30;1.33;;;16.50;99.90;;;;;;5490195;26;20002;-41
2024/04/14 12:09:47;;;;;;;4.53;0.93;;;16.90;99.90;;;;;;5489953;26;20528;-40
2024/04/14 12:12:14;;;;;;;7.63;1.30;;;17.10;99.30;;;;;;5490339;26;20455;-41
2024/04/14 12:14:40;;;;;;;3.92;0.63;;;16.90;99.90;;;;;;5489936;26;20495;-39
2024/04/14 12:17:07;;;;;;;7.75;0.93;;;16.50;99.90;;;;;;5487691;26;20002;-39
2024/04/14 12:19:33;;;;;;;8.00;0.93;;;16.40;99.90;;;;;;5451687;26;20006;-40
2024/04/14 12:21:58;;;;;;;6.22;1.20;;;16.50;99.90;;;;;;5478041;26;19998;-39
2024/04/14 12:24:25;;;;;;;6.35;1.05;;;16.70;99.90;;;;;;5489908;26;20009;-40
2024/04/14 12:26:50;;;;;;;5.82;0.80;;;16.90;99.90;;;;;;5490003;26;19998;-39
2024/04/14 12:29:17;;;;;;;6.72;0.90;;;17.00;99.70;;;;;;5489863;26;20009;-38
2024/04/14 12:31:43;;;;;;;3.10;0.90;;;17.00;99.90;;;;;;5488030;26;20009;-38
2024/04/14 12:34:09;;;;;;;4.05;0.95;;;17.10;99.90;;;;;;5489683;26;19998;-39
2024/04/14 12:36:35;;;;;;;4.40;1.17;;;17.10;99.70;;;;;;5489687;26;20005;-41
2024/04/14 12:39:01;;;;;;;9.23;1.00;;;17.10;99.60;;;;;;5488489;26;20006;-39
2024/04/14 12:41:26;;;;;;;3.80;1.10;;;17.20;99.90;;;;;;5489314;26;20013;-40